createdAt,value
2023-07-02T00:02:20.794Z,16.33
2023-07-02T00:04:48.100Z,16.28
2023-07-02T00:07:15.878Z,16.30
2023-07-02T00:09:42.766Z,16.28
2023-07-02T00:12:09.735Z,16.23
2023-07-02T00:14:36.446Z,16.21
2023-07-02T00:17:03.252Z,16.20
2023-07-02T00:19:30.184Z,16.19
2023-07-02T00:21:57.336Z,16.24
2023-07-02T00:24:24.173Z,16.29
2023-07-02T00:26:50.857Z,16.37
2023-07-02T00:29:17.464Z,16.43
2023-07-02T00:31:44.222Z,16.50
2023-07-02T00:34:11.053Z,16.57
2023-07-02T00:36:37.914Z,16.62
2023-07-02T00:39:04.884Z,16.68
2023-07-02T00:41:31.950Z,16.77
2023-07-02T00:43:58.790Z,16.81
2023-07-02T00:46:27.109Z,16.88
2023-07-02T00:48:55.222Z,16.94
2023-07-02T00:51:25.632Z,17.02
2023-07-02T00:53:53.616Z,17.09
2023-07-02T00:56:20.313Z,17.08
2023-07-02T00:58:52.039Z,17.14
2023-07-02T01:01:19.942Z,17.18
2023-07-02T01:04:06.340Z,17.23
2023-07-02T01:06:34.087Z,17.28
2023-07-02T01:09:01.734Z,17.26
2023-07-02T01:11:29.347Z,17.27
2023-07-02T01:13:56.816Z,17.26
2023-07-02T01:16:23.866Z,17.14
2023-07-02T01:18:52.228Z,17.15
2023-07-02T01:21:19.773Z,17.14
2023-07-02T01:23:46.576Z,17.13
2023-07-02T01:26:13.397Z,17.15
2023-07-02T01:28:40.078Z,17.18
2023-07-02T01:31:07.552Z,17.20
2023-07-02T01:33:34.361Z,17.17
2023-07-02T01:36:00.992Z,17.18
2023-07-02T01:38:28.634Z,17.24
2023-07-02T01:40:55.395Z,17.22
2023-07-02T01:43:22.165Z,17.21
2023-07-02T01:45:49.485Z,17.23
2023-07-02T01:48:16.442Z,17.16
2023-07-02T01:50:43.214Z,17.06
2023-07-02T01:53:09.982Z,17.04
2023-07-02T01:55:36.792Z,16.95
2023-07-02T01:58:03.533Z,16.93
2023-07-02T02:00:30.235Z,16.92
2023-07-02T02:02:57.194Z,16.87
2023-07-02T02:05:23.994Z,16.78
2023-07-02T02:07:50.752Z,16.73
2023-07-02T02:10:17.434Z,16.73
2023-07-02T02:12:44.220Z,16.76
2023-07-02T02:15:12.785Z,16.72
2023-07-02T02:17:39.562Z,16.74
2023-07-02T02:20:07.260Z,16.79
2023-07-02T02:22:34.132Z,16.84
2023-07-02T02:25:00.850Z,16.81
2023-07-02T02:27:27.684Z,16.86
2023-07-02T02:29:54.452Z,16.84
2023-07-02T02:32:22.960Z,16.86
2023-07-02T02:34:50.357Z,16.86
2023-07-02T02:37:17.107Z,16.89
2023-07-02T02:39:44.019Z,16.91
2023-07-02T02:42:13.580Z,16.92
2023-07-02T02:44:40.284Z,16.95
2023-07-02T02:47:07.212Z,16.97
2023-07-02T02:49:33.803Z,16.98
2023-07-02T02:52:00.513Z,17.00
2023-07-02T02:54:27.213Z,16.96
2023-07-02T02:56:53.922Z,16.97
2023-07-02T02:59:20.717Z,16.91
2023-07-02T03:01:48.006Z,16.98
2023-07-02T03:04:14.750Z,16.99
2023-07-02T03:06:41.484Z,16.99
2023-07-02T03:09:08.235Z,16.96
2023-07-02T03:11:35.020Z,16.94
2023-07-02T03:14:01.706Z,16.94
2023-07-02T03:16:28.511Z,16.98
2023-07-02T03:18:55.366Z,16.96
2023-07-02T03:21:22.078Z,16.97
2023-07-02T03:23:48.945Z,16.98
2023-07-02T03:26:15.798Z,17.02
2023-07-02T03:28:42.503Z,17.04
2023-07-02T03:31:09.249Z,17.06
2023-07-02T03:33:36.133Z,17.06
2023-07-02T03:36:03.223Z,17.06
2023-07-02T03:38:29.934Z,17.10
2023-07-02T03:40:56.633Z,17.09
2023-07-02T03:43:23.686Z,17.03
2023-07-02T03:45:50.579Z,16.96
2023-07-02T03:48:17.262Z,16.93
2023-07-02T03:50:44.160Z,16.96
2023-07-02T03:53:11.403Z,16.92
2023-07-02T03:55:38.077Z,16.90
2023-07-02T03:58:04.729Z,16.84
2023-07-02T04:00:31.389Z,16.89
2023-07-02T04:02:59.282Z,16.84
2023-07-02T04:05:26.037Z,16.77
2023-07-02T04:07:52.809Z,16.80
2023-07-02T04:10:19.812Z,16.79
2023-07-02T04:12:46.812Z,16.76
2023-07-02T04:15:13.591Z,16.71
2023-07-02T04:17:40.436Z,16.73
2023-07-02T04:20:09.028Z,16.75
2023-07-02T04:22:35.885Z,16.78
2023-07-02T04:25:11.522Z,16.78
2023-07-02T04:27:52.253Z,16.70
2023-07-02T04:30:19.532Z,16.78
2023-07-02T04:32:46.349Z,16.78
2023-07-02T04:35:13.097Z,16.78
2023-07-02T04:37:40.015Z,16.82
2023-07-02T04:40:13.140Z,16.79
2023-07-02T04:42:40.242Z,16.75
2023-07-02T04:45:07.543Z,16.75
2023-07-02T04:47:34.541Z,16.87
2023-07-02T04:50:01.594Z,16.93
2023-07-02T04:52:28.791Z,16.94
2023-07-02T04:54:57.368Z,16.99
2023-07-02T04:57:23.961Z,17.02
2023-07-02T04:59:50.815Z,17.05
2023-07-02T05:02:17.972Z,17.08
2023-07-02T05:04:45.517Z,16.98
2023-07-02T05:07:12.239Z,16.92
2023-07-02T05:09:39.306Z,16.84
2023-07-02T05:12:06.167Z,16.72
2023-07-02T05:14:33.071Z,16.69
2023-07-02T05:16:59.891Z,16.71
2023-07-02T05:19:26.775Z,16.65
2023-07-02T05:21:54.526Z,16.71
2023-07-02T05:24:21.307Z,16.84
2023-07-02T05:26:48.014Z,16.89
2023-07-02T05:29:15.849Z,16.86
2023-07-02T05:31:42.774Z,16.90
2023-07-02T05:34:09.733Z,17.02
2023-07-02T05:36:36.519Z,16.98
2023-07-02T05:39:03.336Z,16.97
2023-07-02T05:41:32.026Z,17.09
2023-07-02T05:43:59.323Z,17.18
2023-07-02T05:46:26.248Z,17.35
2023-07-02T05:48:52.990Z,17.48
2023-07-02T05:51:23.149Z,17.63
2023-07-02T05:53:50.162Z,17.77
2023-07-02T05:56:17.427Z,17.77
2023-07-02T05:58:48.490Z,17.82
2023-07-02T06:01:15.865Z,17.95
2023-07-02T06:03:44.415Z,18.12
2023-07-02T06:06:12.651Z,18.16
2023-07-02T06:08:39.582Z,18.19
2023-07-02T06:11:06.416Z,18.27
2023-07-02T06:13:33.013Z,18.40
2023-07-02T06:15:59.984Z,18.43
2023-07-02T06:18:27.001Z,18.52
2023-07-02T06:20:53.865Z,18.60
2023-07-02T06:23:20.689Z,18.66
2023-07-02T06:25:47.461Z,18.67
2023-07-02T06:28:14.638Z,18.79
2023-07-02T06:30:41.388Z,19.02
2023-07-02T06:33:08.229Z,19.26
2023-07-02T06:35:34.899Z,19.57
2023-07-02T06:38:01.662Z,19.94
2023-07-02T06:40:28.484Z,20.19
2023-07-02T06:42:55.162Z,20.30
2023-07-02T06:45:21.970Z,20.45
2023-07-02T06:47:48.721Z,20.65
2023-07-02T06:50:15.453Z,20.94
2023-07-02T06:52:42.327Z,21.19
2023-07-02T06:55:09.442Z,21.16
2023-07-02T06:57:36.190Z,21.23
2023-07-02T07:00:02.978Z,21.44
2023-07-02T07:02:29.795Z,21.65
2023-07-02T07:04:56.669Z,21.97
2023-07-02T07:07:23.598Z,22.24
2023-07-02T07:09:50.445Z,22.29
2023-07-02T07:12:17.155Z,22.10
2023-07-02T07:14:45.017Z,22.23
2023-07-02T07:17:12.008Z,22.36
2023-07-02T07:19:38.780Z,22.28
2023-07-02T07:22:05.536Z,22.32
2023-07-02T07:24:32.266Z,22.33
2023-07-02T07:26:59.525Z,22.22
2023-07-02T07:29:26.342Z,22.04
2023-07-02T07:31:53.030Z,21.89
2023-07-02T07:34:20.002Z,21.95
2023-07-02T07:36:46.883Z,22.10
2023-07-02T07:39:13.685Z,22.36
2023-07-02T07:41:40.502Z,22.73
2023-07-02T07:44:07.523Z,23.24
2023-07-02T07:46:34.480Z,23.48
2023-07-02T07:49:01.293Z,23.58
2023-07-02T07:51:30.944Z,23.67
2023-07-02T07:53:58.089Z,23.44
2023-07-02T07:56:24.855Z,23.61
2023-07-02T07:58:51.479Z,23.96
2023-07-02T08:01:18.198Z,24.27
2023-07-02T08:03:44.958Z,24.38
2023-07-02T08:06:11.765Z,24.65
2023-07-02T08:08:38.552Z,24.86
2023-07-02T08:11:05.262Z,25.04
2023-07-02T08:13:32.337Z,25.16
2023-07-02T08:15:59.159Z,25.42
2023-07-02T08:18:26.067Z,25.51
2023-07-02T08:20:52.834Z,25.41
2023-07-02T08:23:19.573Z,25.23
2023-07-02T08:25:46.287Z,25.26
2023-07-02T08:28:13.170Z,25.06
2023-07-02T08:30:39.939Z,24.95
2023-07-02T08:33:06.682Z,24.85
2023-07-02T08:35:33.426Z,25.02
2023-07-02T08:38:00.404Z,24.60
2023-07-02T08:40:27.288Z,24.60
2023-07-02T08:42:54.103Z,24.65
2023-07-02T08:45:21.067Z,24.51
2023-07-02T08:47:48.105Z,24.52
2023-07-02T08:50:15.242Z,24.70
2023-07-02T08:52:42.002Z,25.12
2023-07-02T08:55:08.980Z,25.53
2023-07-02T08:57:36.345Z,26.18
2023-07-02T09:00:12.205Z,27.23
2023-07-02T09:02:38.960Z,28.50
2023-07-02T09:05:06.218Z,31.00
2023-07-02T09:07:33.230Z,32.69
2023-07-02T09:10:00.004Z,34.08
2023-07-02T09:12:30.417Z,35.66
2023-07-02T09:14:57.822Z,37.24
2023-07-02T09:17:28.400Z,38.01
2023-07-02T09:19:55.200Z,38.00
2023-07-02T09:22:21.905Z,38.94
2023-07-02T09:24:55.501Z,39.44
2023-07-02T09:27:22.600Z,40.23
2023-07-02T09:29:53.505Z,41.85
2023-07-02T09:32:27.418Z,42.34
2023-07-02T09:34:55.852Z,41.83
2023-07-02T09:37:22.572Z,42.82
2023-07-02T09:39:51.186Z,43.44
2023-07-02T09:42:17.918Z,43.27
2023-07-02T09:44:44.733Z,40.63
2023-07-02T09:47:11.596Z,39.40
2023-07-02T09:49:38.850Z,40.91
2023-07-02T09:52:09.411Z,40.45
2023-07-02T09:54:36.581Z,39.05
2023-07-02T09:57:03.511Z,37.74
2023-07-02T09:59:30.392Z,38.32
2023-07-02T10:01:57.663Z,39.15
2023-07-02T10:04:25.356Z,38.23
2023-07-02T10:06:53.751Z,36.76
2023-07-02T10:09:21.052Z,36.04
2023-07-02T10:11:47.728Z,36.08
2023-07-02T10:14:14.503Z,34.38
2023-07-02T10:16:53.778Z,33.69
2023-07-02T10:19:20.793Z,33.76
2023-07-02T10:21:47.746Z,34.40
2023-07-02T10:24:15.267Z,34.07
2023-07-02T10:26:58.515Z,33.02
2023-07-02T10:29:26.067Z,32.11
2023-07-02T10:31:53.685Z,31.18
2023-07-02T10:34:33.957Z,29.86
2023-07-02T10:37:04.006Z,29.34
2023-07-02T10:39:31.528Z,29.00
2023-07-02T10:42:04.879Z,28.32
2023-07-02T10:44:32.415Z,27.70
2023-07-02T10:46:59.101Z,27.24
2023-07-02T10:49:31.521Z,26.88
2023-07-02T10:52:01.384Z,26.78
2023-07-02T10:54:40.600Z,26.67
2023-07-02T10:57:08.114Z,26.73
2023-07-02T10:59:34.791Z,26.54
2023-07-02T11:02:03.569Z,26.41
2023-07-02T11:04:33.367Z,26.29
2023-07-02T11:07:00.211Z,26.30
2023-07-02T11:09:27.376Z,26.46
2023-07-02T11:11:54.975Z,26.98
2023-07-02T11:14:31.638Z,27.45
2023-07-02T11:17:06.900Z,28.08
2023-07-02T11:19:34.466Z,28.61
2023-07-02T11:22:01.337Z,28.71
2023-07-02T11:24:34.505Z,28.71
2023-07-02T11:27:01.717Z,28.75
2023-07-02T11:29:29.728Z,28.44
2023-07-02T11:31:57.457Z,28.45
2023-07-02T11:34:25.785Z,28.55
2023-07-02T11:36:55.383Z,28.48
2023-07-02T11:39:22.233Z,28.42
2023-07-02T11:41:49.851Z,28.53
2023-07-02T11:44:17.121Z,28.45
2023-07-02T11:46:44.036Z,28.64
2023-07-02T11:49:10.861Z,28.68
2023-07-02T11:51:38.238Z,28.96
2023-07-02T11:54:05.800Z,28.86
2023-07-02T11:56:32.932Z,29.03
2023-07-02T11:58:59.707Z,29.42
2023-07-02T12:01:26.430Z,29.61
2023-07-02T12:03:53.272Z,29.41
2023-07-02T12:06:20.010Z,29.28
2023-07-02T12:08:46.723Z,28.99
2023-07-02T12:11:13.421Z,28.71
2023-07-02T12:13:40.159Z,28.70
2023-07-02T12:16:06.908Z,28.62
2023-07-02T12:18:33.653Z,28.31
2023-07-02T12:21:00.481Z,28.03
2023-07-02T12:23:27.186Z,27.85
2023-07-02T12:25:53.929Z,28.08
2023-07-02T12:28:20.721Z,28.52
2023-07-02T12:30:47.636Z,28.36
2023-07-02T12:33:14.582Z,28.25
2023-07-02T12:35:41.220Z,28.15
2023-07-02T12:38:09.992Z,27.96
2023-07-02T12:40:36.685Z,27.77
2023-07-02T12:43:03.386Z,27.72
2023-07-02T12:45:30.211Z,27.54
2023-07-02T12:47:57.281Z,27.42
2023-07-02T12:50:24.007Z,27.39
2023-07-02T12:52:50.713Z,27.61
2023-07-02T12:55:17.764Z,27.68
2023-07-02T12:57:44.509Z,27.69
2023-07-02T13:00:11.819Z,27.82
2023-07-02T13:02:49.755Z,28.00
2023-07-02T13:05:20.986Z,28.13
2023-07-02T13:07:47.602Z,28.43
2023-07-02T13:10:14.261Z,28.81
2023-07-02T13:12:41.001Z,29.59
2023-07-02T13:15:07.994Z,29.95
2023-07-02T13:17:34.708Z,30.03
2023-07-02T13:20:01.434Z,29.83
2023-07-02T13:22:28.055Z,29.73
2023-07-02T13:24:54.829Z,29.64
2023-07-02T13:27:21.453Z,29.45
2023-07-02T13:29:48.170Z,29.29
2023-07-02T13:32:14.912Z,29.03
2023-07-02T13:34:41.633Z,28.86
2023-07-02T13:37:09.035Z,28.95
2023-07-02T13:39:35.948Z,29.07
2023-07-02T13:42:02.737Z,29.14
2023-07-02T13:44:29.521Z,29.42
2023-07-02T13:46:56.434Z,29.65
2023-07-02T13:49:23.442Z,30.06
2023-07-02T13:51:51.889Z,30.08
2023-07-02T13:54:20.192Z,29.89
2023-07-02T13:56:50.891Z,29.34
2023-07-02T13:59:17.919Z,28.51
2023-07-02T14:01:44.862Z,27.74
2023-07-02T14:04:11.734Z,26.87
2023-07-02T14:06:38.742Z,26.19
2023-07-02T14:09:05.839Z,25.87
2023-07-02T14:11:32.578Z,25.47
2023-07-02T14:13:59.434Z,25.26
2023-07-02T14:16:26.200Z,25.15
2023-07-02T14:18:52.950Z,25.11
2023-07-02T14:21:19.851Z,24.94
2023-07-02T14:23:46.583Z,24.90
2023-07-02T14:26:13.470Z,24.83
2023-07-02T14:28:40.261Z,24.66
2023-07-02T14:31:07.176Z,24.59
2023-07-02T14:33:34.624Z,24.61
2023-07-02T14:36:01.493Z,24.56
2023-07-02T14:38:28.242Z,24.58
2023-07-02T14:40:55.433Z,24.66
2023-07-02T14:43:26.395Z,24.69
2023-07-02T14:45:54.059Z,24.89
2023-07-02T14:48:20.824Z,25.14
2023-07-02T14:50:51.620Z,25.46
2023-07-02T14:53:18.459Z,25.88
2023-07-02T14:55:45.941Z,26.13
2023-07-02T14:58:12.867Z,26.54
2023-07-02T15:00:46.235Z,26.92
2023-07-02T15:03:13.218Z,27.33
2023-07-02T15:05:40.928Z,27.59
2023-07-02T15:08:09.143Z,27.73
2023-07-02T15:10:36.288Z,27.95
2023-07-02T15:13:03.266Z,28.11
2023-07-02T15:15:30.032Z,28.24
2023-07-02T15:17:56.770Z,28.49
2023-07-02T15:20:23.556Z,28.80
2023-07-02T15:22:50.272Z,28.67
2023-07-02T15:25:17.071Z,28.50
2023-07-02T15:27:43.970Z,28.73
2023-07-02T15:30:10.863Z,29.17
2023-07-02T15:32:37.606Z,29.34
2023-07-02T15:35:04.601Z,29.41
2023-07-02T15:37:31.350Z,29.40
2023-07-02T15:39:58.159Z,29.14
2023-07-02T15:42:29.225Z,28.97
2023-07-02T15:44:56.064Z,28.87
2023-07-02T15:47:22.980Z,28.63
2023-07-02T15:49:50.105Z,28.25
2023-07-02T15:52:17.014Z,28.01
2023-07-02T15:54:43.721Z,27.57
2023-07-02T15:57:10.392Z,27.18
2023-07-02T15:59:40.089Z,27.01
2023-07-02T16:02:07.602Z,27.17
2023-07-02T16:04:34.388Z,27.53
2023-07-02T16:07:01.243Z,27.61
2023-07-02T16:09:27.919Z,27.74
2023-07-02T16:11:54.593Z,27.68
2023-07-02T16:14:23.902Z,27.57
2023-07-02T16:16:55.716Z,27.33
2023-07-02T16:19:23.326Z,26.91
2023-07-02T16:21:50.268Z,26.88
2023-07-02T16:24:21.383Z,26.82
2023-07-02T16:26:48.308Z,26.79
2023-07-02T16:29:15.312Z,26.81
2023-07-02T16:31:48.715Z,26.89
2023-07-02T16:34:18.351Z,27.09
2023-07-02T16:36:45.629Z,27.29
2023-07-02T16:39:13.114Z,27.63
2023-07-02T16:41:47.287Z,27.90
2023-07-02T16:44:15.118Z,27.88
2023-07-02T16:46:41.917Z,27.50
2023-07-02T16:49:09.528Z,27.34
2023-07-02T16:51:40.750Z,27.30
2023-07-02T16:54:09.802Z,27.25
2023-07-02T16:56:37.479Z,27.26
2023-07-02T16:59:05.419Z,26.93
2023-07-02T17:01:32.093Z,26.90
2023-07-02T17:03:59.000Z,26.75
2023-07-02T17:06:26.092Z,26.56
2023-07-02T17:09:12.775Z,26.54
2023-07-02T17:11:39.572Z,26.56
2023-07-02T17:14:06.242Z,26.30
2023-07-02T17:16:33.028Z,26.21
2023-07-02T17:18:59.719Z,26.06
2023-07-02T17:21:26.395Z,25.74
2023-07-02T17:23:53.100Z,25.47
2023-07-02T17:26:19.840Z,25.21
2023-07-02T17:28:46.579Z,25.11
2023-07-02T17:31:13.288Z,25.09
2023-07-02T17:33:39.905Z,25.06
2023-07-02T17:36:06.629Z,25.01
2023-07-02T17:38:33.456Z,24.94
2023-07-02T17:41:00.459Z,24.92
2023-07-02T17:43:27.209Z,24.81
2023-07-02T17:45:54.929Z,24.66
2023-07-02T17:48:21.681Z,24.47
2023-07-02T17:50:56.071Z,24.36
2023-07-02T17:53:22.892Z,24.35
2023-07-02T17:55:50.375Z,24.24
2023-07-02T17:58:17.478Z,24.10
2023-07-02T18:00:44.280Z,23.95
2023-07-02T18:03:11.202Z,23.96
2023-07-02T18:05:38.742Z,24.00
2023-07-02T18:08:05.643Z,23.92
2023-07-02T18:10:32.445Z,23.82
2023-07-02T18:12:59.093Z,23.64
2023-07-02T18:15:25.919Z,23.49
2023-07-02T18:17:52.630Z,23.35
2023-07-02T18:20:19.344Z,23.26
2023-07-02T18:22:46.246Z,23.09
2023-07-02T18:25:13.403Z,22.98
2023-07-02T18:27:40.181Z,22.85
2023-07-02T18:30:07.581Z,22.69
2023-07-02T18:32:34.566Z,22.54
2023-07-02T18:35:01.531Z,22.45
2023-07-02T18:37:28.299Z,22.33
2023-07-02T18:39:55.207Z,22.23
2023-07-02T18:42:23.708Z,22.11
2023-07-02T18:44:51.349Z,22.05
2023-07-02T18:47:18.103Z,21.99
2023-07-02T18:49:44.825Z,21.92
2023-07-02T18:52:15.713Z,21.80
2023-07-02T18:54:42.576Z,21.56
2023-07-02T18:57:10.540Z,21.41
2023-07-02T18:59:37.392Z,21.32
2023-07-02T19:02:05.637Z,21.28
2023-07-02T19:04:34.507Z,21.20
2023-07-02T19:07:04.341Z,21.11
2023-07-02T19:09:31.177Z,20.98
2023-07-02T19:11:57.908Z,20.85
2023-07-02T19:14:24.607Z,20.76
2023-07-02T19:16:51.327Z,20.68
2023-07-02T19:19:18.063Z,20.60
2023-07-02T19:21:44.807Z,20.44
2023-07-02T19:24:12.025Z,20.36
2023-07-02T19:26:38.820Z,20.25
2023-07-02T19:29:05.558Z,20.12
2023-07-02T19:31:32.384Z,19.98
2023-07-02T19:33:59.102Z,19.84
2023-07-02T19:36:25.777Z,19.73
2023-07-02T19:38:52.606Z,19.63
2023-07-02T19:41:19.357Z,19.50
2023-07-02T19:43:46.452Z,19.39
2023-07-02T19:46:13.213Z,19.30
2023-07-02T19:48:40.254Z,19.14
2023-07-02T19:51:08.398Z,19.11
2023-07-02T19:53:35.592Z,19.09
2023-07-02T19:56:06.548Z,19.07
2023-07-02T19:58:33.850Z,19.00
2023-07-02T20:01:00.733Z,18.90
2023-07-02T20:03:27.622Z,18.88
2023-07-02T20:05:54.740Z,18.80
2023-07-02T20:08:21.935Z,18.74
2023-07-02T20:10:48.866Z,18.76
2023-07-02T20:13:15.678Z,18.75
2023-07-02T20:15:42.406Z,18.75
2023-07-02T20:18:09.736Z,18.77
2023-07-02T20:20:36.494Z,18.75
2023-07-02T20:23:03.305Z,18.74
2023-07-02T20:28:01.507Z,18.75
2023-07-02T20:30:28.413Z,18.78
2023-07-02T20:32:55.221Z,18.76
2023-07-02T20:35:22.069Z,18.63
2023-07-02T20:37:52.560Z,18.61
2023-07-02T20:40:20.009Z,18.58
2023-07-02T20:42:46.776Z,18.57
2023-07-02T20:45:14.012Z,18.58
2023-07-02T20:47:43.375Z,18.63
2023-07-02T20:50:15.185Z,18.66
2023-07-02T20:52:42.298Z,18.63
2023-07-02T20:55:09.363Z,18.60
2023-07-02T20:57:36.110Z,18.49
2023-07-02T21:00:04.693Z,18.41
2023-07-02T21:02:31.655Z,18.35
2023-07-02T21:04:58.478Z,18.27
2023-07-02T21:07:26.017Z,18.27
2023-07-02T21:09:52.978Z,18.27
2023-07-02T21:12:19.750Z,18.21
2023-07-02T21:14:50.220Z,18.16
2023-07-02T21:17:16.925Z,18.06
2023-07-02T21:19:43.742Z,18.01
2023-07-02T21:22:10.584Z,18.01
2023-07-02T21:24:37.634Z,18.01
2023-07-02T21:27:04.532Z,18.01
2023-07-02T21:29:32.202Z,17.98
2023-07-02T21:31:59.112Z,17.93
2023-07-02T21:34:26.107Z,17.90
2023-07-02T21:36:52.801Z,17.93
2023-07-02T21:39:19.491Z,18.01
2023-07-02T21:41:48.907Z,18.03
2023-07-02T21:44:15.658Z,17.98
2023-07-02T21:46:42.546Z,17.93
2023-07-02T21:49:09.367Z,17.86
2023-07-02T21:51:36.344Z,17.78
2023-07-02T21:54:03.053Z,17.68
2023-07-02T21:56:29.741Z,17.51
2023-07-02T21:58:56.520Z,17.46
2023-07-02T22:01:23.399Z,17.44
2023-07-02T22:03:50.107Z,17.38
2023-07-02T22:06:16.961Z,17.38
2023-07-02T22:08:43.597Z,17.35
2023-07-02T22:11:23.002Z,17.28
2023-07-02T22:13:50.988Z,17.23
2023-07-02T22:16:17.663Z,17.10
2023-07-02T22:18:44.347Z,17.01
2023-07-02T22:21:11.171Z,16.96
2023-07-02T22:23:38.710Z,16.85
2023-07-02T22:26:05.593Z,16.84
2023-07-02T22:28:32.328Z,16.86
2023-07-02T22:30:59.109Z,16.88
2023-07-02T22:33:25.854Z,16.83
2023-07-02T22:35:52.780Z,16.79
2023-07-02T22:38:19.761Z,16.80
2023-07-02T22:40:46.464Z,16.86
2023-07-02T22:43:13.278Z,16.91
2023-07-02T22:45:40.369Z,16.85
2023-07-02T22:48:07.322Z,16.85
2023-07-02T22:50:34.089Z,16.83
2023-07-02T22:53:02.309Z,16.85
2023-07-02T22:55:29.954Z,16.74
2023-07-02T22:57:57.007Z,16.66
2023-07-02T23:00:23.794Z,16.69
2023-07-02T23:02:50.638Z,16.69
2023-07-02T23:05:18.998Z,16.68
2023-07-02T23:07:46.532Z,16.77
2023-07-02T23:10:14.576Z,16.81
2023-07-02T23:12:42.866Z,16.80
2023-07-02T23:15:14.711Z,16.73
2023-07-02T23:17:42.347Z,16.72
2023-07-02T23:20:09.421Z,16.62
2023-07-02T23:22:41.253Z,16.53
2023-07-02T23:25:09.913Z,16.40
2023-07-02T23:27:40.120Z,16.29
2023-07-02T23:30:08.424Z,16.22
2023-07-02T23:32:36.591Z,16.22
2023-07-02T23:35:03.506Z,16.24
2023-07-02T23:37:30.605Z,16.27
2023-07-02T23:39:57.540Z,16.32
2023-07-02T23:42:24.303Z,16.37
2023-07-02T23:44:51.091Z,16.36
2023-07-02T23:47:17.848Z,16.31
2023-07-02T23:49:44.746Z,16.35
2023-07-02T23:52:11.453Z,16.39
2023-07-02T23:54:38.114Z,16.46
2023-07-02T23:57:04.872Z,16.46
2023-07-02T23:59:31.780Z,16.49
